New Boston, New Hampshire
Current Conditions -  °F | °C
As of 7:21 AM on Monday 24 Nov 2014 (Local Time) from KMHT Reporting Station
Light Rain Light Rain  
Wind Chill: 53°   Ceiling: 1000
Heat Index: 53°   Visibility: 5mi
Dew Point: 51°   Wind: 18mph
Humidity: 93%   Direction: 130°SE
Pressure: 29.77"   Gusts: NA
Location:  42.98°N, 71.69°W
Report Text: KMHT 241221Z 13016KT 5SM -RA BR OVC010 12/11 A2977 RMK AO2 CIG 007V015 P0003 T01170106
Loading
Personal Weather Stations






























Interactive Weather Map New forecast layout! Learn more

10-Day Weather Forecast

Advertisements
Track Severe Weather on mobile